Time;durP1;ratioP1;P1;durP2;ratioP2;P2;SDS_P1;SDS_P2;PMS_P1;PMS_P2;Temp;Humidity;BMP_temperature;BMP_pressure;BME280_temperature;BME280_humidity;BME280_pressure;Samples;Min_cycle;Max_cycle;Signal;HPM_P1;HPM_P2
2021/06/13 00:02:07;;;;;;;4.27;3.60;;;;;;;16.74;86.53;94894.13;5117656;28;20510;-80
2021/06/13 00:04:34;;;;;;;9.00;3.70;;;;;;;16.71;86.80;94897.94;5118055;28;20452;-80
2021/06/13 00:07:00;;;;;;;4.67;4.33;;;;;;;16.65;87.05;94903.88;5117936;28;20441;-80
2021/06/13 00:09:27;;;;;;;6.87;3.87;;;;;;;16.58;87.13;94905.56;5117856;28;20887;-80
2021/06/13 00:11:53;;;;;;;5.17;3.57;;;;;;;16.61;87.06;94909.69;5082119;28;20441;-80
2021/06/13 00:14:21;;;;;;;4.07;3.77;;;;;;;16.60;86.41;94914.16;5117922;28;20455;-80
2021/06/13 00:16:49;;;;;;;3.90;3.43;;;;;;;16.58;86.61;94907.38;5117809;28;21012;-80
2021/06/13 00:19:16;;;;;;;5.73;3.70;;;;;;;16.54;86.56;94912.19;5117414;28;20433;-80
2021/06/13 00:21:43;;;;;;;6.87;4.00;;;;;;;16.53;86.77;94904.41;5117218;28;20440;-80
2021/06/13 00:24:10;;;;;;;4.23;3.83;;;;;;;16.50;87.01;94900.28;5117087;28;20920;-80
2021/06/13 00:26:37;;;;;;;4.10;3.70;;;;;;;16.46;87.01;94896.28;5115202;28;20443;-80
2021/06/13 00:29:04;;;;;;;4.13;3.70;;;;;;;16.45;86.55;94891.97;5117165;28;20480;-81
2021/06/13 00:31:31;;;;;;;4.40;4.00;;;;;;;16.40;87.59;94897.75;5117353;28;20438;-80
2021/06/13 00:33:59;;;;;;;3.70;3.40;;;;;;;16.38;87.39;94891.81;5116968;28;20424;-80
2021/06/13 00:36:43;;;;;;;4.53;4.13;;;;;;;16.39;87.57;94897.94;5116734;28;20444;-80
2021/06/13 00:39:10;;;;;;;3.93;3.63;;;;;;;16.33;87.50;94890.66;5116791;28;20444;-80
2021/06/13 00:41:36;;;;;;;4.07;3.77;;;;;;;16.37;87.67;94895.44;5117030;28;20430;-80
2021/06/13 00:44:03;;;;;;;3.93;3.63;;;;;;;16.35;87.02;94886.00;5116991;28;20837;-80
2021/06/13 00:46:30;;;;;;;5.10;3.77;;;;;;;16.36;87.29;94892.97;5116708;28;20443;-81
2021/06/13 00:48:56;;;;;;;4.30;3.90;;;;;;;16.38;86.79;94880.38;5116897;28;20524;-80
2021/06/13 00:51:24;;;;;;;6.13;4.10;;;;;;;16.36;86.50;94879.72;5116967;28;20445;-80
2021/06/13 00:53:52;;;;;;;4.07;3.70;;;;;;;16.40;86.88;94878.41;5081209;28;20439;-80
2021/06/13 00:59:41;;;;;;;7.80;5.93;;;;;;;16.46;86.23;94880.38;5116553;28;20414;-80
2021/06/13 01:02:08;;;;;;;5.03;4.40;;;;;;;16.40;85.96;94881.88;5116313;28;20427;-81
2021/06/13 01:26:05;;;;;;;4.67;4.30;;;;;;;16.43;86.23;94864.81;5108678;27;20327;-82
2021/06/13 01:29:01;;;;;;;4.83;4.33;;;;;;;16.47;85.87;94857.38;5108772;28;20563;-81
2021/06/13 01:31:31;;;;;;;4.30;4.00;;;;;;;16.44;86.00;94858.53;5028381;28;20484;-82
2021/06/13 01:34:01;;;;;;;8.00;4.40;;;;;;;16.43;85.55;94859.53;5028053;28;20538;-82
2021/06/13 01:36:29;;;;;;;4.60;4.20;;;;;;;16.41;85.82;94859.69;4979273;28;20505;-82
2021/06/13 01:38:57;;;;;;;8.20;4.13;;;;;;;16.41;85.87;94864.16;5028257;28;20443;-82
2021/06/13 01:41:31;;;;;;;5.10;4.70;;;;;;;16.36;85.93;94855.88;5028264;28;20483;-82
2021/06/13 01:43:59;;;;;;;4.67;4.13;;;;;;;16.34;86.46;94864.00;5027962;28;21073;-82
2021/06/13 01:46:32;;;;;;;4.93;4.53;;;;;;;16.32;85.94;94859.88;5028261;28;20846;-82
2021/06/13 01:49:00;;;;;;;4.60;4.20;;;;;;;16.33;86.36;94864.16;5027899;28;20586;-81
2021/06/13 01:51:26;;;;;;;5.20;4.77;;;;;;;16.22;86.33;94860.03;4979001;28;20836;-81
2021/06/13 01:53:53;;;;;;;4.80;4.50;;;;;;;16.23;86.52;94867.00;5027880;28;20485;-82
2021/06/13 01:56:21;;;;;;;4.47;4.17;;;;;;;16.21;86.39;94865.50;5027861;28;20453;-82
2021/06/13 01:58:50;;;;;;;4.93;4.40;;;;;;;16.09;86.88;94863.16;5011257;28;20507;-82
2021/06/13 02:01:20;;;;;;;6.70;4.87;;;;;;;16.15;86.57;94871.44;4978770;28;20474;-82
2021/06/13 02:03:51;;;;;;;8.70;4.20;;;;;;;16.09;86.02;94867.63;5055096;28;20456;-82
2021/06/13 02:06:22;;;;;;;4.50;4.20;;;;;;;16.11;86.53;94863.00;5098336;27;20536;-82
2021/06/13 02:08:49;;;;;;;5.47;4.90;;;;;;;16.05;86.93;94856.53;5151689;27;20443;-81
2021/06/13 02:11:16;;;;;;;5.33;4.87;;;;;;;15.99;86.74;94859.03;5152220;27;20448;-82
2021/06/13 02:13:46;;;;;;;11.10;5.70;;;;;;;15.93;87.05;94849.94;5151083;27;20979;-81
2021/06/13 02:16:15;;;;;;;5.27;4.80;;;;;;;15.83;87.80;94853.69;5151114;27;20814;-82
2021/06/13 02:18:45;;;;;;;5.43;4.93;;;;;;;15.86;87.52;94862.13;5151144;27;20446;-80
2021/06/13 02:21:14;;;;;;;4.40;4.10;;;;;;;15.91;87.85;94851.91;5151389;27;20489;-82
2021/06/13 02:23:41;;;;;;;5.50;5.10;;;;;;;15.97;88.36;94855.72;5154225;27;20981;-82
2021/06/13 02:26:10;;;;;;;7.13;5.40;;;;;;;15.97;88.11;94848.59;5161554;27;20859;-82
2021/06/13 02:28:41;;;;;;;5.47;4.97;;;;;;;16.02;88.69;94854.22;5157839;27;20471;-82
2021/06/13 02:31:09;;;;;;;5.87;5.37;;;;;;;16.01;87.79;94852.56;5157761;27;20446;-82
2021/06/13 02:33:39;;;;;;;7.13;6.03;;;;;;;16.00;88.56;94856.22;5157933;27;20483;-82
2021/06/13 02:36:06;;;;;;;6.73;5.27;;;;;;;16.00;89.24;94853.56;5105233;27;20503;-82
2021/06/13 02:38:34;;;;;;;6.70;5.87;;;;;;;16.02;89.20;94856.88;5157753;27;20474;-82
2021/06/13 02:41:01;;;;;;;6.03;5.57;;;;;;;16.04;88.49;94848.78;5157848;27;20439;-82
2021/06/13 02:43:27;;;;;;;9.23;5.83;;;;;;;16.04;88.28;94856.72;5157898;27;20450;-82
2021/06/13 02:45:54;;;;;;;9.23;6.10;;;;;;;16.00;87.87;94850.94;5157612;27;20447;-82
2021/06/13 02:48:21;;;;;;;7.90;4.80;;;;;;;15.99;87.84;94849.25;5157471;27;20454;-82
2021/06/13 02:50:47;;;;;;;5.47;4.97;;;;;;;15.97;88.07;94851.25;5157403;27;20447;-81
2021/06/13 02:53:22;;;;;;;5.20;4.80;;;;;;;15.99;87.78;94843.97;5157421;27;20448;-82
2021/06/13 02:55:55;;;;;;;9.23;5.63;;;;;;;16.00;87.08;94847.44;5157343;27;20444;-82
2021/06/13 02:58:38;;;;;;;4.93;4.53;;;;;;;16.02;86.64;94843.66;5157628;27;20447;-82
2021/06/13 03:01:07;;;;;;;5.57;5.07;;;;;;;16.03;86.93;94841.81;5157389;27;20453;-82
2021/06/13 03:03:36;;;;;;;6.83;4.43;;;;;;;16.03;86.42;94847.94;5157328;27;20845;-82
2021/06/13 03:06:09;;;;;;;5.73;5.23;;;;;;;16.03;86.61;94849.75;5157602;27;20462;-82
2021/06/13 03:08:36;;;;;;;4.87;4.37;;;;;;;16.02;86.15;94846.28;5157276;27;20950;-85
2021/06/13 03:11:06;;;;;;;5.03;4.60;;;;;;;16.02;86.66;94846.28;5157363;27;20525;-82
2021/06/13 03:13:33;;;;;;;5.37;4.90;;;;;;;16.00;85.42;94840.34;5120745;27;20504;-82
2021/06/13 03:16:01;;;;;;;8.80;5.67;;;;;;;15.94;87.11;94841.00;5157173;27;20470;-82
2021/06/13 03:18:29;;;;;;;19.20;5.40;;;;;;;15.97;86.94;94847.78;5156916;27;20798;-83
2021/06/13 03:20:56;;;;;;;5.53;4.63;;;;;;;16.00;86.74;94845.63;5156800;27;20448;-82
2021/06/13 03:23:25;;;;;;;5.70;4.93;;;;;;;16.04;87.26;94846.94;5156378;27;20443;-83
2021/06/13 03:25:54;;;;;;;5.63;5.20;;;;;;;16.14;86.83;94843.31;5156963;27;20490;-83
2021/06/13 03:28:24;;;;;;;5.37;4.87;;;;;;;16.29;87.02;94849.59;5156734;27;20441;-83
2021/06/13 03:30:53;;;;;;;5.30;4.80;;;;;;;16.45;86.08;94843.47;5156679;27;20445;-83
2021/06/13 03:33:21;;;;;;;6.40;5.47;;;;;;;16.70;86.12;94843.28;5156595;27;20472;-82
2021/06/13 03:35:49;;;;;;;7.53;5.77;;;;;;;16.98;84.91;94840.25;5156394;27;20953;-83
2021/06/13 03:38:17;;;;;;;6.30;5.40;;;;;;;17.29;82.61;94841.13;5155485;27;20452;-83
2021/06/13 03:40:47;;;;;;;5.60;5.17;;;;;;;17.60;81.38;94851.75;5156508;27;20927;-83
2021/06/13 03:43:15;;;;;;;5.73;5.23;;;;;;;17.92;79.81;94845.47;5156419;27;20563;-83
2021/06/13 03:45:44;;;;;;;7.07;5.83;;;;;;;18.20;78.52;94853.72;5156680;27;20591;-83
2021/06/13 03:48:13;;;;;;;5.00;4.60;;;;;;;18.41;77.46;94853.09;5156179;27;20479;-83
2021/06/13 03:50:42;;;;;;;5.17;4.73;;;;;;;18.49;76.16;94853.00;5156460;27;20446;-83
2021/06/13 03:53:09;;;;;;;8.00;5.60;;;;;;;18.48;76.69;94869.13;5155993;27;20500;-83
2021/06/13 03:55:36;;;;;;;5.43;4.93;;;;;;;18.54;77.00;94861.28;5156300;27;20478;-83
2021/06/13 03:58:04;;;;;;;6.80;5.20;;;;;;;18.73;75.79;94857.31;5119876;27;20487;-83
2021/06/13 04:00:33;;;;;;;6.30;4.83;;;;;;;18.97;75.89;94856.25;5156246;27;20450;-84
2021/06/13 04:03:03;;;;;;;5.53;5.13;;;;;;;19.14;73.94;94855.06;5156015;27;20451;-84
2021/06/13 04:05:31;;;;;;;4.63;4.27;;;;;;;19.33;72.68;94844.88;5103523;27;20447;-83
2021/06/13 04:07:58;;;;;;;13.63;4.57;;;;;;;19.39;71.95;94846.81;5119985;27;20998;-83
2021/06/13 04:10:27;;;;;;;5.07;4.67;;;;;;;19.43;72.24;94848.09;5155992;27;20795;-84
2021/06/13 04:12:58;;;;;;;4.77;4.33;;;;;;;19.30;71.85;94853.22;5156208;27;20444;-83
2021/06/13 04:15:26;;;;;;;6.33;4.67;;;;;;;19.17;73.14;94846.72;5102786;27;20896;-83
2021/06/13 04:17:54;;;;;;;6.77;5.33;;;;;;;19.12;74.43;94842.97;5155840;27;20927;-83
2021/06/13 04:20:23;;;;;;;5.17;4.73;;;;;;;19.30;74.32;94839.91;5155692;27;20448;-83
2021/06/13 04:22:52;;;;;;;5.87;5.00;;;;;;;19.57;73.64;94839.28;5155692;27;20475;-84
2021/06/13 04:25:19;;;;;;;4.77;4.47;;;;;;;19.94;72.88;94837.44;5119531;27;20480;-84
2021/06/13 04:27:48;;;;;;;5.43;5.03;;;;;;;20.41;70.70;94835.06;5155519;27;20500;-83
2021/06/13 04:30:16;;;;;;;6.97;4.77;;;;;;;20.81;69.40;94829.22;5102331;27;20435;-83
2021/06/13 04:32:43;;;;;;;5.20;4.80;;;;;;;21.18;67.84;94830.72;5118956;27;20429;-83
2021/06/13 04:35:10;;;;;;;5.53;4.40;;;;;;;21.56;66.51;94834.63;5155269;27;20488;-83
2021/06/13 04:37:39;;;;;;;5.60;5.10;;;;;;;21.92;65.29;94834.34;5119118;27;20443;-83
2021/06/13 04:40:07;;;;;;;6.00;5.40;;;;;;;22.25;64.24;94829.09;5155327;27;20527;-82
2021/06/13 04:42:36;;;;;;;8.43;5.60;;;;;;;22.54;63.91;94830.56;5119312;27;20482;-84
2021/06/13 04:45:08;;;;;;;5.80;5.30;;;;;;;22.81;62.27;94826.09;5155401;27;20505;-81
2021/06/13 04:47:35;;;;;;;6.47;5.80;;;;;;;23.03;61.58;94823.19;5155391;27;20450;-81
2021/06/13 04:50:04;;;;;;;6.70;6.10;;;;;;;23.20;61.30;94829.75;5119001;27;20500;-81
2021/06/13 04:52:32;;;;;;;6.73;5.90;;;;;;;23.28;61.06;94824.16;5155083;27;20469;-81
2021/06/13 04:55:22;;;;;;;7.00;6.30;;;;;;;23.22;60.04;94822.34;5154980;27;20543;-84
2021/06/13 04:58:08;;;;;;;11.23;6.43;;;;;;;23.25;60.41;94827.25;5155172;27;20489;-81
2021/06/13 05:00:35;;;;;;;7.00;6.40;;;;;;;23.20;61.65;94819.03;5155096;27;20444;-84
2021/06/13 05:03:02;;;;;;;8.00;7.20;;;;;;;23.12;60.58;94821.91;5155063;27;20508;-82
2021/06/13 05:05:29;;;;;;;8.93;6.07;;;;;;;22.85;61.81;94830.00;5154858;27;20939;-84
2021/06/13 05:07:57;;;;;;;6.90;6.00;;;;;;;22.48;62.91;94828.72;5154991;27;20472;-83
2021/06/13 05:10:26;;;;;;;9.53;6.23;;;;;;;22.05;64.78;94833.59;5155274;27;20439;-83
2021/06/13 05:12:54;;;;;;;7.50;6.10;;;;;;;21.74;66.99;94835.94;5155233;27;20491;-81
2021/06/13 05:15:23;;;;;;;8.93;7.13;;;;;;;21.36;67.62;94840.88;5154949;27;20513;-81
2021/06/13 05:17:50;;;;;;;11.80;7.60;;;;;;;20.96;68.80;94838.78;5155095;27;20441;-84
2021/06/13 05:20:18;;;;;;;8.57;7.60;;;;;;;20.67;70.33;94838.97;5118497;27;20846;-83
2021/06/13 05:22:56;;;;;;;8.73;7.83;;;;;;;20.32;71.98;94836.19;5154901;27;20496;-81
2021/06/13 05:25:27;;;;;;;13.00;8.40;;;;;;;20.15;72.23;94836.63;5155098;27;20505;-83
2021/06/13 05:27:55;;;;;;;11.43;8.87;;;;;;;19.98;72.59;94834.22;5159927;27;20446;-84
2021/06/13 05:30:22;;;;;;;10.93;9.93;;;;;;;19.45;75.79;94836.25;5155181;27;20463;-82
2021/06/13 05:32:49;;;;;;;15.40;10.87;;;;;;;19.76;76.11;94830.72;5155272;27;20480;-83
2021/06/13 05:35:17;;;;;;;14.20;9.50;;;;;;;20.00;75.81;94831.38;5154690;27;20481;-84
2021/06/13 05:37:44;;;;;;;12.00;10.77;;;;;;;20.34;75.42;94828.84;5154801;27;20441;-84
2021/06/13 05:40:12;;;;;;;14.70;10.50;;;;;;;20.47;73.40;94830.81;5154823;27;20441;-83
2021/06/13 05:42:41;;;;;;;13.13;9.60;;;;;;;20.50;71.86;94833.09;5154528;27;20524;-84
2021/06/13 05:45:10;;;;;;;13.67;10.50;;;;;;;20.60;72.50;94816.78;5154636;27;20473;-84
2021/06/13 05:47:38;;;;;;;11.50;10.30;;;;;;;20.50;73.52;94827.75;5102050;27;20501;-84
2021/06/13 05:50:07;;;;;;;10.57;9.20;;;;;;;19.79;74.60;94824.19;5154830;27;20444;-84
2021/06/13 05:52:35;;;;;;;12.30;8.77;;;;;;;19.96;74.84;94814.94;5102053;27;20966;-81
2021/06/13 05:55:02;;;;;;;10.57;9.60;;;;;;;20.14;75.54;94817.16;5154720;27;21032;-83
2021/06/13 05:57:32;;;;;;;10.47;9.47;;;;;;;20.28;75.03;94812.78;5154300;27;20525;-84
2021/06/13 06:00:01;;;;;;;10.23;9.23;;;;;;;20.22;74.19;94813.53;5154603;27;20451;-84
2021/06/13 06:02:28;;;;;;;13.80;9.37;;;;;;;20.17;75.59;94818.63;5158468;27;20496;-84
2021/06/13 06:04:55;;;;;;;9.47;8.47;;;;;;;20.26;75.29;94818.31;5158148;27;20844;-84
2021/06/13 06:07:22;;;;;;;9.10;8.23;;;;;;;20.38;75.45;94818.63;5158463;27;20443;-84
2021/06/13 06:09:49;;;;;;;10.20;9.20;;;;;;;20.54;74.18;94823.72;5121708;27;20517;-84
2021/06/13 06:12:17;;;;;;;9.30;8.47;;;;;;;20.55;74.98;94814.69;5138827;27;20992;-81
2021/06/13 06:14:45;;;;;;;11.90;9.50;;;;;;;20.54;74.14;94812.22;5158130;27;20491;-84
2021/06/13 06:17:14;;;;;;;8.83;7.93;;;;;;;20.47;75.74;94819.31;5158377;27;20436;-84
2021/06/13 06:19:41;;;;;;;9.63;8.70;;;;;;;20.44;74.13;94828.53;5158025;27;20487;-83
2021/06/13 06:22:09;;;;;;;10.63;9.13;;;;;;;20.51;74.24;94810.75;5157973;27;20476;-84
2021/06/13 06:24:36;;;;;;;9.87;8.80;;;;;;;20.66;75.65;94813.34;5158037;27;20971;-84
2021/06/13 06:27:04;;;;;;;9.57;8.73;;;;;;;20.82;74.70;94812.22;5158005;27;20472;-84
2021/06/13 06:29:31;;;;;;;11.10;9.93;;;;;;;20.84;73.46;94813.69;5157851;27;20445;-82
2021/06/13 06:31:58;;;;;;;11.57;9.70;;;;;;;20.53;74.46;94808.75;5104096;27;20473;-81
2021/06/13 06:34:27;;;;;;;9.53;8.63;;;;;;;20.84;73.91;94815.53;5157681;27;20477;-83
2021/06/13 06:36:54;;;;;;;11.63;9.30;;;;;;;21.16;74.05;94816.75;5121301;27;20493;-83
2021/06/13 06:39:21;;;;;;;9.93;9.10;;;;;;;21.26;71.56;94811.91;5157641;27;20449;-84
2021/06/13 06:41:48;;;;;;;9.90;8.87;;;;;;;21.16;71.40;94806.06;5157600;27;20473;-83
2021/06/13 06:44:16;;;;;;;10.33;9.20;;;;;;;21.40;71.86;94802.13;5157611;27;20446;-83
2021/06/13 06:46:44;;;;;;;12.50;8.80;;;;;;;21.84;71.54;94794.47;5157614;27;20922;-83
2021/06/13 06:49:11;;;;;;;11.93;8.47;;;;;;;22.14;69.20;94799.50;5157521;27;20471;-83
2021/06/13 06:51:39;;;;;;;9.70;8.20;;;;;;;22.47;69.41;94796.84;5157462;27;20486;-83
2021/06/13 06:54:06;;;;;;;10.20;9.20;;;;;;;22.89;66.76;94798.31;5157600;27;20444;-83
2021/06/13 06:56:33;;;;;;;9.93;9.03;;;;;;;23.12;64.96;94795.16;5157611;27;20514;-83
2021/06/13 06:59:00;;;;;;;9.60;8.60;;;;;;;23.45;65.34;94790.56;5157238;27;20479;-83
2021/06/13 07:01:28;;;;;;;10.80;9.77;;;;;;;23.58;63.02;94792.38;5157212;27;20442;-83
2021/06/13 07:03:55;;;;;;;8.67;7.93;;;;;;;23.88;63.51;94784.59;5157421;27;20521;-84
2021/06/13 07:06:22;;;;;;;11.00;8.87;;;;;;;24.26;63.27;94789.94;5157297;27;20511;-83
2021/06/13 07:08:50;;;;;;;10.20;9.17;;;;;;;24.57;61.44;94786.41;5157125;27;20511;-83
2021/06/13 07:11:17;;;;;;;10.00;8.93;;;;;;;24.64;61.95;94781.84;5157080;27;20491;-83
2021/06/13 07:13:44;;;;;;;11.37;10.13;;;;;;;24.40;61.11;94783.47;5156864;27;20451;-83
2021/06/13 07:16:11;;;;;;;11.17;9.90;;;;;;;24.76;60.10;94775.75;5156929;27;20544;-83
2021/06/13 07:18:38;;;;;;;11.57;10.40;;;;;;;24.79;58.43;94773.44;5156936;27;20917;-84
2021/06/13 07:21:06;;;;;;;13.90;11.23;;;;;;;24.62;60.37;94773.19;5156981;27;20902;-83
2021/06/13 07:23:34;;;;;;;13.03;11.70;;;;;;;24.75;60.54;94777.59;5103362;27;20454;-83
2021/06/13 07:26:03;;;;;;;11.60;10.47;;;;;;;25.12;60.69;94766.94;5156905;27;20796;-83
2021/06/13 07:28:32;;;;;;;16.77;10.70;;;;;;;25.16;58.12;94773.53;5157228;27;20470;-83
2021/06/13 07:30:59;;;;;;;12.30;11.10;;;;;;;25.34;58.63;94770.84;5156871;27;20581;-82
2021/06/13 07:33:27;;;;;;;12.83;10.90;;;;;;;25.09;58.96;94765.53;5120698;27;20938;-83
2021/06/13 07:35:54;;;;;;;12.97;11.47;;;;;;;24.78;60.45;94766.44;5156645;27;20512;-83
2021/06/13 07:38:21;;;;;;;14.00;11.60;;;;;;;24.43;61.45;94755.38;5156588;27;20484;-83
2021/06/13 07:40:49;;;;;;;13.70;11.30;;;;;;;24.17;61.05;94755.56;5156579;27;20447;-83
2021/06/13 07:43:17;;;;;;;14.00;10.80;;;;;;;23.89;63.76;94762.13;5156667;27;20507;-83
2021/06/13 07:45:45;;;;;;;13.13;11.83;;;;;;;23.72;64.66;94758.31;5103270;27;20534;-83
2021/06/13 07:48:13;;;;;;;14.97;12.17;;;;;;;23.20;66.96;94757.47;5156519;27;20446;-83
2021/06/13 07:50:42;;;;;;;13.37;11.80;;;;;;;23.20;66.89;94760.16;5103505;27;20522;-82
2021/06/13 07:53:09;;;;;;;12.63;11.50;;;;;;;22.98;67.76;94756.09;5156723;27;20442;-83
2021/06/13 07:55:36;;;;;;;12.77;11.40;;;;;;;22.88;67.43;94753.84;5155907;27;20975;-83
2021/06/13 07:58:04;;;;;;;15.70;12.10;;;;;;;22.57;67.72;94754.47;5156638;27;20487;-83
2021/06/13 08:00:33;;;;;;;13.20;11.97;;;;;;;22.44;69.32;94757.97;5156014;27;20530;-83
2021/06/13 08:03:00;;;;;;;13.40;11.50;;;;;;;22.38;69.20;94747.28;5156632;27;20443;-83
2021/06/13 08:05:27;;;;;;;13.07;11.77;;;;;;;22.40;69.13;94750.56;5156039;27;20448;-83
2021/06/13 08:07:55;;;;;;;14.20;12.17;;;;;;;22.41;70.95;94752.22;5155864;27;20436;-83
2021/06/13 08:10:23;;;;;;;12.07;10.97;;;;;;;22.51;69.28;94752.59;5156426;27;20473;-83
2021/06/13 08:12:50;;;;;;;12.57;11.37;;;;;;;22.60;69.16;94761.25;5156181;27;20787;-83
2021/06/13 08:15:18;;;;;;;13.10;10.43;;;;;;;22.61;69.88;94765.59;5155933;27;20540;-83
2021/06/13 08:17:47;;;;;;;9.90;9.00;;;;;;;22.57;65.10;94765.19;5119651;27;20762;-83
2021/06/13 08:20:15;;;;;;;10.57;9.13;;;;;;;22.54;64.46;94765.56;5155947;27;20474;-83
2021/06/13 08:22:42;;;;;;;10.13;9.33;;;;;;;22.61;65.74;94768.25;5155393;27;20906;-83
2021/06/13 08:25:11;;;;;;;11.47;10.57;;;;;;;22.65;63.81;94761.47;5119119;27;20528;-87
2021/06/13 08:27:38;;;;;;;10.37;9.30;;;;;;;22.65;63.76;94764.13;5155622;27;20461;-83
2021/06/13 08:30:07;;;;;;;13.03;11.93;;;;;;;22.70;63.01;94757.13;5156289;27;20471;-84
2021/06/13 08:32:34;;;;;;;14.03;12.70;;;;;;;23.04;65.00;94755.22;5155450;27;20853;-83
2021/06/13 08:35:04;;;;;;;12.60;11.50;;;;;;;23.12;62.31;94755.81;5155490;27;20509;-81
2021/06/13 08:37:31;;;;;;;20.33;14.37;;;;;;;23.04;62.29;94749.88;5155734;27;20443;-84
2021/06/13 08:39:58;;;;;;;15.33;13.83;;;;;;;22.91;62.89;94764.13;5155724;27;20979;-84
2021/06/13 08:42:25;;;;;;;14.03;12.40;;;;;;;22.74;63.79;94761.03;5155522;27;20472;-84
2021/06/13 08:44:54;;;;;;;22.40;13.67;;;;;;;22.63;64.33;94761.66;5155521;27;20502;-83
2021/06/13 08:47:22;;;;;;;13.20;11.90;;;;;;;22.57;64.07;94762.50;5155545;27;20452;-83
2021/06/13 08:49:50;;;;;;;14.40;12.93;;;;;;;22.43;64.42;94760.84;5119247;27;20442;-84
2021/06/13 08:52:19;;;;;;;13.13;12.00;;;;;;;22.29;65.56;94767.25;5155578;27;20499;-83
2021/06/13 08:54:46;;;;;;;13.93;12.63;;;;;;;22.11;66.34;94757.13;5155648;27;20499;-81
2021/06/13 08:57:14;;;;;;;14.60;12.50;;;;;;;21.95;67.05;94763.66;5155699;27;20897;-81
2021/06/13 08:59:42;;;;;;;15.00;13.10;;;;;;;21.92;67.44;94764.06;5155090;27;20447;-83
2021/06/13 09:02:11;;;;;;;13.93;12.73;;;;;;;21.89;67.34;94772.47;5155391;27;20917;-83
2021/06/13 09:04:38;;;;;;;14.20;12.90;;;;;;;21.77;68.42;94776.78;5155134;27;20440;-83
2021/06/13 09:07:13;;;;;;;13.27;11.97;;;;;;;21.79;67.45;94767.53;5155206;27;21507;-84
2021/06/13 09:09:42;;;;;;;12.57;11.43;;;;;;;21.72;66.71;94773.91;5155281;27;20829;-82
2021/06/13 09:12:10;;;;;;;13.00;11.87;;;;;;;21.54;67.44;94771.78;5119314;27;20463;-82
2021/06/13 09:14:42;;;;;;;12.63;11.60;;;;;;;21.30;68.39;94771.25;5155183;27;20471;-83
2021/06/13 09:17:15;;;;;;;12.37;11.23;;;;;;;21.13;69.87;94783.28;5155263;27;20944;-83
2021/06/13 09:20:09;;;;;;;12.67;11.40;;;;;;;21.02;70.13;94783.81;5155059;27;20441;-83
2021/06/13 09:22:37;;;;;;;13.03;11.93;;;;;;;20.89;71.02;94784.56;5118658;27;20474;-84
2021/06/13 09:25:08;;;;;;;12.53;11.30;;;;;;;20.95;71.55;94791.78;5154776;27;20465;-83
2021/06/13 09:27:35;;;;;;;12.53;11.40;;;;;;;20.84;72.55;94791.53;5154989;27;20446;-82
2021/06/13 09:30:02;;;;;;;15.33;12.50;;;;;;;20.79;74.47;94785.91;5154690;27;20441;-82
2021/06/13 09:32:29;;;;;;;11.07;10.10;;;;;;;20.65;75.03;94788.50;5118472;27;20465;-82
2021/06/13 09:35:22;;;;;;;17.10;10.07;;;;;;;20.54;76.61;94793.56;5154997;27;20780;-82
2021/06/13 09:38:18;;;;;;;9.40;8.60;;;;;;;20.46;77.55;94799.84;5159103;27;20450;-82
2021/06/13 09:40:51;;;;;;;10.47;9.57;;;;;;;20.46;78.46;94791.03;5159306;27;20448;-84
2021/06/13 09:43:24;;;;;;;10.27;9.37;;;;;;;20.52;79.78;94808.91;5158850;27;20496;-83
2021/06/13 09:46:00;;;;;;;8.67;7.87;;;;;;;20.53;80.25;94813.22;5159060;27;20524;-83
2021/06/13 09:48:27;;;;;;;12.60;8.10;;;;;;;20.43;81.40;94810.88;5159262;27;20442;-83
2021/06/13 09:50:56;;;;;;;9.27;8.40;;;;;;;20.27;84.39;94816.47;5158859;27;20446;-83
2021/06/13 09:53:44;;;;;;;7.23;6.63;;;;;;;20.02;86.76;94811.53;5158784;27;20501;-83
2021/06/13 09:56:30;;;;;;;8.03;7.37;;;;;;;19.84;89.31;94816.44;5158588;27;20511;-83
2021/06/13 09:59:04;;;;;;;8.17;7.50;;;;;;;19.75;87.76;94812.25;5158557;27;20857;-83
2021/06/13 10:01:34;;;;;;;11.93;7.60;;;;;;;19.72;89.78;94810.78;5158864;27;20445;-83
2021/06/13 10:04:02;;;;;;;8.83;8.13;;;;;;;19.62;90.48;94814.75;5158657;27;20498;-82
2021/06/13 10:06:31;;;;;;;7.17;6.37;;;;;;;19.60;89.98;94814.13;5158560;27;20979;-84
2021/06/13 10:08:59;;;;;;;8.43;7.73;;;;;;;19.66;91.40;94818.69;5158526;27;20447;-83
2021/06/13 10:11:27;;;;;;;7.50;6.90;;;;;;;19.63;90.53;94819.06;5158605;27;20474;-82
2021/06/13 10:13:58;;;;;;;6.70;6.07;;;;;;;19.65;90.79;94825.84;5158204;27;20444;-83
2021/06/13 10:16:33;;;;;;;6.87;6.27;;;;;;;19.76;90.61;94821.91;5158384;27;20482;-83
2021/06/13 10:19:02;;;;;;;6.77;6.20;;;;;;;19.77;90.11;94824.38;5158120;27;20776;-83
2021/06/13 10:21:34;;;;;;;5.83;5.43;;;;;;;19.73;88.44;94822.28;5158467;27;20443;-83
2021/06/13 10:24:03;;;;;;;5.37;4.97;;;;;;;19.68;89.50;94825.50;5121359;27;20465;-83
2021/06/13 10:26:30;;;;;;;7.30;6.07;;;;;;;19.62;89.64;94825.41;5158220;27;20440;-83
2021/06/13 10:28:58;;;;;;;5.70;5.30;;;;;;;19.49;88.24;94820.72;5158185;27;20439;-83
2021/06/13 10:31:25;;;;;;;6.13;5.63;;;;;;;19.38;89.24;94821.22;5158222;27;20479;-83
2021/06/13 10:33:52;;;;;;;6.70;5.97;;;;;;;19.33;89.07;94828.91;5158007;27;20503;-82
2021/06/13 10:36:19;;;;;;;6.70;6.20;;;;;;;19.28;88.67;94825.97;5158021;27;20978;-82
2021/06/13 10:38:46;;;;;;;5.30;4.90;;;;;;;19.25;88.62;94827.16;5158074;27;20536;-83
2021/06/13 10:41:13;;;;;;;5.80;5.33;;;;;;;19.23;89.21;94831.84;5157811;27;20502;-82
2021/06/13 10:43:43;;;;;;;5.63;5.23;;;;;;;19.22;89.56;94832.03;5158013;27;20904;-83
2021/06/13 10:46:14;;;;;;;6.93;6.00;;;;;;;19.17;89.79;94835.25;5157507;27;20445;-83
2021/06/13 10:48:49;;;;;;;5.83;5.43;;;;;;;19.15;90.08;94832.78;5157883;27;20452;-82
2021/06/13 10:51:34;;;;;;;6.37;5.47;;;;;;;19.12;90.05;94841.13;5157643;27;20845;-83
2021/06/13 10:54:23;;;;;;;5.57;5.17;;;;;;;19.12;90.34;94841.13;5158164;27;20834;-84
2021/06/13 10:56:52;;;;;;;6.20;5.70;;;;;;;19.08;90.81;94837.19;5104332;27;21064;-84
2021/06/13 10:59:20;;;;;;;7.67;6.90;;;;;;;19.05;90.86;94828.72;5157385;27;20469;-82
2021/06/13 11:02:03;;;;;;;6.60;5.67;;;;;;;19.11;91.22;94836.81;5157376;27;20478;-82
2021/06/13 11:04:48;;;;;;;6.60;6.10;;;;;;;19.05;90.58;94818.91;5121065;27;20473;-83
2021/06/13 11:07:48;;;;;;;5.90;5.40;;;;;;;19.06;90.98;94820.56;5157271;27;21045;-82
2021/06/13 11:10:16;;;;;;;5.80;4.70;;;;;;;19.07;90.75;94816.91;5073133;28;20450;-83
2021/06/13 11:12:47;;;;;;;6.23;5.53;;;;;;;19.12;90.53;94816.38;5072933;28;20500;-82
2021/06/13 11:15:17;;;;;;;6.30;5.80;;;;;;;19.20;91.11;94813.59;5072958;28;20496;-83
2021/06/13 11:17:57;;;;;;;4.90;4.50;;;;;;;19.18;89.60;94811.13;5073072;28;20565;-82
2021/06/13 11:20:36;;;;;;;5.60;5.17;;;;;;;19.23;88.93;94817.72;5072846;28;20450;-83
2021/06/13 11:23:04;;;;;;;5.27;4.97;;;;;;;19.33;89.64;94799.63;5072778;28;20446;-83
2021/06/13 11:25:32;;;;;;;5.50;5.10;;;;;;;19.47;89.94;94818.25;5072715;28;20479;-83
2021/06/13 11:28:14;;;;;;;4.20;3.90;;;;;;;19.46;87.46;94811.28;5072855;28;20809;-84
2021/06/13 11:30:43;;;;;;;5.00;4.60;;;;;;;19.54;87.68;94815.69;5072546;28;20450;-82
2021/06/13 11:33:13;;;;;;;5.93;5.33;;;;;;;19.51;87.61;94805.41;5072694;28;20498;-88
2021/06/13 11:35:46;;;;;;;4.40;4.10;;;;;;;19.57;85.30;94817.16;5072634;28;20457;-83
2021/06/13 11:38:27;;;;;;;5.07;4.67;;;;;;;19.58;85.53;94816.97;5072545;28;20487;-82
2021/06/13 11:40:56;;;;;;;5.17;4.80;;;;;;;19.69;87.51;94813.84;5072721;28;20489;-82
2021/06/13 11:43:26;;;;;;;4.60;4.10;;;;;;;19.76;84.31;94820.06;5072356;28;20443;-83
2021/06/13 11:45:55;;;;;;;4.60;4.17;;;;;;;19.85;84.95;94803.94;5072430;28;20469;-82
2021/06/13 11:48:26;;;;;;;4.60;4.27;;;;;;;19.95;85.25;94801.78;5113733;28;20478;-83
2021/06/13 11:51:10;;;;;;;4.40;4.10;;;;;;;20.14;84.23;94811.81;5096669;28;20442;-83
2021/06/13 11:53:50;;;;;;;4.67;4.37;;;;;;;20.15;81.06;94812.66;5115216;28;20901;-82
2021/06/13 11:56:38;;;;;;;3.87;3.67;;;;;;;20.13;79.23;94814.69;5115025;28;20487;-82
2021/06/13 11:59:08;;;;;;;4.40;4.10;;;;;;;20.15;79.84;94831.31;5113934;28;20478;-83
2021/06/13 12:01:36;;;;;;;5.13;4.73;;;;;;;20.14;79.44;94822.50;5114497;28;20446;-83
2021/06/13 12:04:06;;;;;;;5.50;4.73;;;;;;;20.10;79.38;94826.53;5115185;28;20474;-83
2021/06/13 12:06:35;;;;;;;6.80;5.50;;;;;;;20.10;79.37;94818.56;5114739;28;20464;-82